Time;durP1;ratioP1;P1;durP2;ratioP2;P2;SDS_P1;SDS_P2;PMS_P1;PMS_P2;Temp;Humidity;BMP_temperature;BMP_pressure;BME280_temperature;BME280_humidity;BME280_pressure;Samples;Min_cycle;Max_cycle;Signal;HPM_P1;HPM_P2
2022/10/23 00:02:04;;;;;;;16.97;7.93;;;10.90;99.90;;;;;;4989210;28;20372;-82
2022/10/23 00:04:30;;;;;;;15.27;8.50;;;10.90;99.90;;;;;;4999191;28;20038;-82
2022/10/23 00:06:55;;;;;;;14.98;8.25;;;10.90;99.90;;;;;;5009759;28;20037;-82
2022/10/23 00:09:23;;;;;;;17.38;8.23;;;10.90;99.90;;;;;;5007568;28;20046;-83
2022/10/23 00:11:50;;;;;;;22.90;8.50;;;10.90;99.90;;;;;;5001008;28;20053;-82
2022/10/23 00:14:19;;;;;;;16.33;7.65;;;10.80;99.90;;;;;;5001972;28;20096;-82
2022/10/23 00:16:45;;;;;;;21.35;8.20;;;10.90;99.90;;;;;;5002372;28;20038;-82
2022/10/23 00:19:11;;;;;;;20.15;8.02;;;10.80;99.90;;;;;;4966539;28;20065;-82
2022/10/23 00:21:38;;;;;;;;;;;10.90;99.90;;;;;;4987368;28;20069;-82
2022/10/23 00:24:04;;;;;;;17.05;8.30;;;10.90;99.90;;;;;;4989047;28;20433;-82
2022/10/23 00:26:30;;;;;;;21.60;8.13;;;10.90;99.90;;;;;;4985856;28;20100;-83
2022/10/23 00:28:56;;;;;;;18.98;8.15;;;10.90;99.90;;;;;;4994793;28;20046;-82
2022/10/23 00:31:23;;;;;;;22.30;8.77;;;10.90;99.90;;;;;;4978583;28;20396;-82
2022/10/23 00:33:49;;;;;;;21.60;9.55;;;10.80;99.90;;;;;;5010053;28;20030;-82
2022/10/23 00:36:17;;;;;;;19.67;8.65;;;10.80;99.90;;;;;;5006928;28;20116;-82
2022/10/23 00:38:43;;;;;;;24.80;8.93;;;10.80;99.90;;;;;;4989497;28;20038;-82
2022/10/23 00:41:12;;;;;;;;;;;10.80;99.90;;;;;;4989081;28;20169;-82
2022/10/23 00:44:00;;;;;;;24.40;9.73;;;10.80;99.90;;;;;;5006083;28;19917;-82
2022/10/23 00:46:26;;;;;;;17.52;9.13;;;10.80;99.90;;;;;;5008063;28;20076;-82
2022/10/23 00:48:52;;;;;;;21.17;8.73;;;10.80;99.90;;;;;;5007701;28;20110;-82
2022/10/23 00:51:18;;;;;;;17.75;9.73;;;10.80;99.90;;;;;;5005288;28;20049;-82
2022/10/23 00:53:44;;;;;;;15.50;9.25;;;10.80;99.90;;;;;;5001927;28;20037;-82
2022/10/23 00:56:10;;;;;;;;;;;10.90;99.90;;;;;;5007125;28;20048;-82
2022/10/23 00:58:35;;;;;;;21.40;10.25;;;10.80;99.90;;;;;;4982050;28;19921;-82
2022/10/23 01:01:01;;;;;;;19.23;10.77;;;10.80;99.90;;;;;;4990797;28;20536;-82
2022/10/23 01:03:28;;;;;;;20.17;10.47;;;10.90;99.90;;;;;;4999975;28;20285;-82
2022/10/23 01:06:12;;;;;;;22.77;11.52;;;10.90;99.90;;;;;;5005822;28;20281;-82
2022/10/23 01:08:44;;;;;;;24.45;12.20;;;10.90;99.90;;;;;;5010464;28;20438;-82
2022/10/23 01:11:27;;;;;;;25.40;11.45;;;11.00;99.90;;;;;;4979200;28;20490;-82
2022/10/23 01:14:19;;;;;;;24.45;11.85;;;10.90;99.90;;;;;;5006282;28;20431;-82
2022/10/23 01:17:09;;;;;;;20.85;11.32;;;10.90;99.90;;;;;;4997510;28;20037;-82
2022/10/23 01:19:42;;;;;;;29.13;12.35;;;10.90;99.90;;;;;;4999968;28;20498;-82
2022/10/23 01:22:16;;;;;;;25.75;12.77;;;10.90;99.90;;;;;;4980978;28;20031;-82
2022/10/23 01:24:51;;;;;;;30.40;13.18;;;10.90;99.90;;;;;;4992669;28;20046;-82
2022/10/23 01:27:24;;;;;;;29.45;12.68;;;10.90;99.90;;;;;;4998638;28;20034;-82
2022/10/23 01:30:06;;;;;;;27.45;14.38;;;10.90;99.90;;;;;;5007302;28;20049;-82
2022/10/23 01:32:43;;;;;;;24.67;11.70;;;10.80;99.90;;;;;;4999382;28;20034;-82
2022/10/23 01:35:23;;;;;;;23.25;11.90;;;10.80;99.90;;;;;;5006684;28;20038;-82
2022/10/23 01:38:04;;;;;;;28.60;13.43;;;10.90;99.90;;;;;;4981329;28;20038;-82
2022/10/23 01:40:46;;;;;;;25.08;12.50;;;10.80;99.90;;;;;;4997381;28;21222;-82
2022/10/23 01:43:18;;;;;;;27.75;14.27;;;10.90;99.90;;;;;;5001806;28;20055;-82
2022/10/23 01:45:50;;;;;;;31.10;13.75;;;10.90;99.90;;;;;;5001433;28;20367;-82
2022/10/23 01:48:21;;;;;;;26.77;13.95;;;10.90;99.90;;;;;;5001325;28;20045;-82
2022/10/23 01:50:47;;;;;;;25.33;12.80;;;10.80;99.90;;;;;;4999064;28;20125;-82
2022/10/23 01:53:13;;;;;;;24.50;12.88;;;10.80;99.90;;;;;;4998705;28;20060;-82
2022/10/23 01:55:42;;;;;;;24.67;13.90;;;10.80;99.90;;;;;;4998939;28;20038;-82
2022/10/23 01:58:10;;;;;;;25.92;12.93;;;10.80;99.90;;;;;;5000913;28;20070;-82
2022/10/23 02:00:38;;;;;;;24.42;13.00;;;10.80;99.90;;;;;;5002442;28;20045;-82
2022/10/23 02:03:06;;;;;;;27.02;13.00;;;10.80;99.90;;;;;;5003188;28;20042;-82
2022/10/23 02:05:32;;;;;;;22.80;13.02;;;10.80;99.90;;;;;;4994129;28;20153;-82
2022/10/23 02:08:00;;;;;;;27.80;13.88;;;10.80;99.90;;;;;;5000501;28;20034;-82
2022/10/23 02:10:38;;;;;;;35.53;14.32;;;10.80;99.90;;;;;;5004787;28;20468;-82
2022/10/23 02:13:30;;;;;;;27.92;12.45;;;10.80;99.90;;;;;;4998758;28;20034;-82
2022/10/23 02:16:04;;;;;;;23.83;12.60;;;10.80;99.90;;;;;;4982331;28;20033;-82
2022/10/23 02:18:44;;;;;;;25.85;12.95;;;10.80;99.90;;;;;;4998142;28;20129;-82
2022/10/23 02:21:15;;;;;;;26.25;12.85;;;10.80;99.90;;;;;;4975102;28;20490;-82
2022/10/23 02:23:53;;;;;;;23.40;13.55;;;10.80;99.90;;;;;;4999635;28;20046;-82
2022/10/23 02:26:22;;;;;;;;;;;10.70;99.90;;;;;;4977478;28;20030;-82
2022/10/23 02:29:00;;;;;;;28.20;13.65;;;10.70;99.90;;;;;;5000977;28;20012;-82
2022/10/23 02:31:26;;;;;;;27.58;13.63;;;10.80;99.90;;;;;;5005451;28;20041;-83
2022/10/23 02:33:52;;;;;;;29.35;12.02;;;10.70;99.90;;;;;;4967890;28;20038;-82
2022/10/23 02:36:18;;;;;;;22.77;12.32;;;10.70;99.90;;;;;;4971726;28;20112;-82
2022/10/23 02:38:44;;;;;;;;;;;10.70;99.90;;;;;;4985418;28;20034;-82
2022/10/23 02:41:34;;;;;;;22.13;11.45;;;10.70;99.90;;;;;;4986227;28;19917;-82
2022/10/23 02:44:20;;;;;;;23.60;13.02;;;10.60;99.90;;;;;;4999572;28;20100;-82
2022/10/23 02:46:58;;;;;;;21.30;12.13;;;10.60;99.90;;;;;;5005604;28;20060;-83
2022/10/23 02:49:33;;;;;;;24.65;12.48;;;10.60;99.90;;;;;;5005447;28;20038;-82
2022/10/23 02:52:09;;;;;;;21.48;12.30;;;10.60;99.90;;;;;;5001070;28;20510;-82
2022/10/23 02:55:00;;;;;;;27.38;13.35;;;10.70;99.90;;;;;;4998035;28;20046;-82
2022/10/23 02:57:36;;;;;;;25.45;13.38;;;10.60;99.90;;;;;;5002540;28;20440;-82
2022/10/23 03:00:13;;;;;;;25.92;12.82;;;10.70;99.90;;;;;;4996361;28;20091;-82
2022/10/23 03:02:40;;;;;;;22.52;12.52;;;10.60;99.90;;;;;;5002563;28;20064;-82
2022/10/23 03:05:10;;;;;;;22.77;12.05;;;10.60;99.90;;;;;;4983071;28;20042;-82
2022/10/23 03:07:37;;;;;;;23.45;13.07;;;10.60;99.90;;;;;;5000483;28;20045;-82
2022/10/23 03:10:03;;;;;;;30.48;14.10;;;10.70;99.90;;;;;;4999926;28;20042;-82
2022/10/23 03:12:29;;;;;;;32.00;13.65;;;10.70;99.90;;;;;;4998631;28;20068;-83
2022/10/23 03:14:55;;;;;;;30.65;14.10;;;10.70;99.90;;;;;;4985337;28;20387;-82
2022/10/23 03:17:20;;;;;;;27.23;13.63;;;10.70;99.90;;;;;;4992374;28;20041;-82
2022/10/23 03:19:46;;;;;;;28.00;13.30;;;10.70;99.90;;;;;;4984841;28;20289;-82
2022/10/23 03:22:12;;;;;;;26.67;13.93;;;10.70;99.90;;;;;;4981368;28;20386;-82
2022/10/23 03:24:38;;;;;;;32.53;13.53;;;10.80;99.90;;;;;;5005058;28;20349;-82
2022/10/23 03:27:03;;;;;;;27.02;13.32;;;10.70;99.90;;;;;;4978881;28;20273;-82
2022/10/23 03:29:29;;;;;;;23.07;12.33;;;10.70;99.90;;;;;;4996542;28;20044;-82
2022/10/23 03:31:54;;;;;;;29.30;13.23;;;10.70;99.90;;;;;;4996727;28;20784;-82
2022/10/23 03:34:20;;;;;;;30.57;12.87;;;10.70;99.90;;;;;;4988835;28;20117;-82
2022/10/23 03:36:46;;;;;;;28.15;13.30;;;10.80;99.90;;;;;;4990188;28;20524;-82
2022/10/23 03:39:12;;;;;;;20.77;12.73;;;10.80;99.90;;;;;;4972422;28;20042;-82
2022/10/23 03:41:37;;;;;;;24.80;12.93;;;10.70;99.90;;;;;;5001210;28;20046;-82
2022/10/23 03:44:03;;;;;;;23.42;12.73;;;10.70;99.90;;;;;;4985718;28;20035;-82
2022/10/23 03:46:29;;;;;;;22.15;11.68;;;10.60;99.90;;;;;;4997386;28;20061;-82
2022/10/23 03:48:57;;;;;;;23.30;12.07;;;10.60;99.90;;;;;;4969917;28;20053;-82
2022/10/23 03:51:24;;;;;;;22.92;12.93;;;10.60;99.90;;;;;;4984086;28;20294;-82
2022/10/23 03:53:50;;;;;;;23.60;12.35;;;10.50;99.90;;;;;;4997458;28;20034;-82
2022/10/23 03:56:16;;;;;;;21.83;11.57;;;10.50;99.90;;;;;;4986055;28;20039;-82
2022/10/23 03:58:41;;;;;;;26.13;12.75;;;10.50;99.90;;;;;;4988674;28;20104;-82
2022/10/23 04:01:07;;;;;;;28.63;13.07;;;10.50;99.90;;;;;;4986222;28;20097;-82
2022/10/23 04:03:33;;;;;;;21.00;13.13;;;10.50;99.90;;;;;;4995056;28;20039;-82
2022/10/23 04:05:59;;;;;;;30.07;13.37;;;10.40;99.90;;;;;;5001913;28;20088;-82
2022/10/23 04:08:24;;;;;;;21.70;11.25;;;10.40;99.90;;;;;;5008837;28;20047;-82
2022/10/23 04:10:50;;;;;;;24.90;12.20;;;10.50;99.90;;;;;;4986008;28;20528;-82
2022/10/23 04:13:16;;;;;;;24.52;12.38;;;10.30;99.90;;;;;;4985065;28;20368;-82
2022/10/23 04:15:48;;;;;;;25.33;13.27;;;10.30;99.90;;;;;;5003466;28;20092;-82
2022/10/23 04:18:13;;;;;;;21.98;12.13;;;10.30;99.90;;;;;;5006097;28;20281;-82
2022/10/23 04:20:39;;;;;;;21.23;11.60;;;10.20;99.90;;;;;;4986953;28;20038;-82
2022/10/23 04:23:05;;;;;;;26.55;13.25;;;10.20;99.90;;;;;;4989809;28;20397;-82
2022/10/23 04:25:30;;;;;;;23.97;13.10;;;10.20;99.90;;;;;;4985886;28;20042;-82
2022/10/23 04:27:56;;;;;;;26.00;13.87;;;10.20;99.90;;;;;;5000294;28;20286;-82
2022/10/23 04:30:22;;;;;;;26.00;13.48;;;10.20;99.90;;;;;;5003781;28;20076;-82
2022/10/23 04:32:51;;;;;;;24.70;14.07;;;10.20;99.90;;;;;;4983424;28;20105;-82
2022/10/23 04:35:18;;;;;;;24.83;15.00;;;10.10;99.90;;;;;;5001592;28;20087;-82
2022/10/23 04:37:44;;;;;;;;;;;10.10;99.90;;;;;;5001823;28;20038;-83
2022/10/23 04:40:10;;;;;;;27.27;14.95;;;10.20;99.90;;;;;;5003941;28;19999;-83
2022/10/23 04:42:36;;;;;;;26.05;13.60;;;10.20;99.90;;;;;;5000268;28;20049;-82
2022/10/23 04:45:02;;;;;;;31.48;15.20;;;10.60;99.90;;;;;;5006568;28;20054;-82
2022/10/23 04:47:27;;;;;;;25.42;13.32;;;10.10;99.90;;;;;;5002084;28;20038;-82
2022/10/23 04:49:53;;;;;;;24.67;13.43;;;10.10;99.90;;;;;;4991565;28;20092;-82
2022/10/23 04:52:21;;;;;;;27.33;15.00;;;10.10;99.90;;;;;;4985455;28;20295;-82
2022/10/23 04:54:47;;;;;;;27.75;14.45;;;10.30;99.90;;;;;;4981375;28;20034;-82
2022/10/23 04:57:13;;;;;;;29.83;15.32;;;10.10;99.90;;;;;;5004475;28;20092;-82
2022/10/23 04:59:39;;;;;;;26.83;15.55;;;10.20;99.90;;;;;;4983159;28;20054;-82
2022/10/23 05:02:04;;;;;;;35.35;15.27;;;10.20;99.90;;;;;;4986650;28;20132;-82
2022/10/23 05:04:30;;;;;;;27.75;15.27;;;10.30;99.90;;;;;;4998791;28;20039;-82
2022/10/23 05:06:56;;;;;;;31.40;15.60;;;10.80;99.90;;;;;;4989973;28;20103;-82
2022/10/23 05:09:21;;;;;;;30.63;15.90;;;10.20;99.90;;;;;;5009829;28;20060;-82
2022/10/23 05:11:47;;;;;;;32.38;15.15;;;10.20;99.90;;;;;;4970225;28;20038;-82
2022/10/23 05:14:13;;;;;;;34.38;16.95;;;10.20;99.90;;;;;;4983743;28;20064;-82
2022/10/23 05:16:50;;;;;;;31.13;16.70;;;10.30;99.90;;;;;;5002395;28;20034;-82
2022/10/23 05:19:33;;;;;;;32.22;17.25;;;10.30;99.90;;;;;;5001976;28;20304;-82
2022/10/23 05:22:00;;;;;;;35.95;17.77;;;10.30;99.90;;;;;;4994798;28;20129;-82
2022/10/23 05:24:26;;;;;;;34.90;18.00;;;10.40;99.90;;;;;;4984152;28;20498;-82
2022/10/23 05:26:52;;;;;;;27.60;15.50;;;10.40;99.90;;;;;;4985836;28;20045;-82
2022/10/23 05:29:19;;;;;;;35.03;16.23;;;10.30;99.90;;;;;;5004606;28;20154;-83
2022/10/23 05:31:46;;;;;;;31.75;17.38;;;10.40;99.90;;;;;;5003202;28;20038;-83
2022/10/23 05:34:13;;;;;;;34.13;17.55;;;10.40;99.90;;;;;;4996961;28;20057;-82
2022/10/23 05:36:38;;;;;;;31.23;17.17;;;10.30;99.90;;;;;;4965281;28;20034;-83
2022/10/23 05:39:04;;;;;;;27.17;16.50;;;10.40;99.90;;;;;;4982324;28;20116;-82
2022/10/23 05:41:30;;;;;;;26.77;15.37;;;10.30;99.90;;;;;;5000739;28;20285;-82
2022/10/23 05:43:56;;;;;;;31.25;16.60;;;10.40;99.90;;;;;;4999360;28;20506;-82
2022/10/23 05:46:22;;;;;;;31.15;15.70;;;10.40;99.90;;;;;;4964491;28;20034;-83
2022/10/23 05:48:51;;;;;;;33.00;16.83;;;10.30;99.90;;;;;;4985116;28;20065;-83
2022/10/23 05:51:22;;;;;;;36.72;17.83;;;10.30;99.90;;;;;;4965038;28;20418;-82
2022/10/23 05:53:53;;;;;;;31.65;16.13;;;10.40;99.90;;;;;;4987255;28;20030;-82
2022/10/23 05:56:19;;;;;;;31.50;15.80;;;10.30;99.90;;;;;;4979134;28;20193;-82
2022/10/23 05:58:45;;;;;;;33.35;17.58;;;10.30;99.90;;;;;;4985014;28;20116;-82
2022/10/23 06:01:13;;;;;;;35.47;18.08;;;10.30;99.90;;;;;;5003167;28;20050;-82
2022/10/23 06:03:39;;;;;;;30.30;16.90;;;10.30;99.90;;;;;;4985219;28;20496;-82
2022/10/23 06:06:06;;;;;;;38.13;16.75;;;10.30;99.90;;;;;;4999142;28;20034;-82
2022/10/23 06:08:32;;;;;;;35.50;15.80;;;10.30;99.90;;;;;;4999870;28;20502;-83
2022/10/23 06:11:03;;;;;;;34.17;16.67;;;10.30;99.90;;;;;;4982875;28;20042;-83
2022/10/23 06:13:29;;;;;;;38.53;16.30;;;10.30;99.90;;;;;;4982690;28;20050;-83
2022/10/23 06:15:55;;;;;;;29.07;15.60;;;10.60;99.90;;;;;;4982745;28;20064;-83
2022/10/23 06:18:20;;;;;;;33.57;15.93;;;10.30;99.90;;;;;;4989862;28;20504;-82
2022/10/23 06:20:46;;;;;;;29.55;16.35;;;10.30;99.90;;;;;;4984647;28;20403;-82
2022/10/23 06:23:12;;;;;;;28.40;17.53;;;10.00;99.90;;;;;;4996758;28;20042;-82
2022/10/23 06:25:37;;;;;;;31.27;16.70;;;10.30;99.90;;;;;;4993563;28;20288;-82
2022/10/23 06:28:03;;;;;;;40.43;18.07;;;10.30;99.90;;;;;;4987029;28;20030;-82
2022/10/23 06:30:29;;;;;;;31.23;16.70;;;10.20;99.90;;;;;;4973277;28;20285;-82
2022/10/23 06:32:54;;;;;;;29.00;16.47;;;10.20;99.90;;;;;;4986975;28;20440;-83
2022/10/23 06:35:20;;;;;;;33.27;16.13;;;10.30;99.90;;;;;;4984706;28;20288;-83
2022/10/23 06:37:46;;;;;;;30.30;15.57;;;10.30;99.90;;;;;;4978425;28;20285;-82
2022/10/23 06:40:11;;;;;;;37.77;16.43;;;10.30;99.90;;;;;;4986060;28;20428;-82
2022/10/23 06:42:37;;;;;;;36.40;17.20;;;10.30;99.90;;;;;;4996203;28;20387;-79
2022/10/23 06:45:03;;;;;;;30.60;15.83;;;10.30;99.90;;;;;;5002146;28;20295;-81
2022/10/23 06:47:29;;;;;;;27.67;15.95;;;10.30;99.90;;;;;;4997348;28;20096;-83
2022/10/23 06:49:55;;;;;;;32.17;17.53;;;10.30;99.90;;;;;;4997892;28;20049;-81
2022/10/23 06:52:20;;;;;;;30.33;16.80;;;10.30;99.90;;;;;;4981879;28;20324;-80
2022/10/23 06:54:46;;;;;;;28.57;15.30;;;10.40;99.90;;;;;;5004724;28;20325;-80
2022/10/23 06:57:12;;;;;;;31.77;17.00;;;10.40;99.90;;;;;;4989089;28;20061;-80
2022/10/23 06:59:37;;;;;;;32.67;16.30;;;10.40;99.90;;;;;;4997377;28;20052;-80
2022/10/23 07:02:03;;;;;;;33.03;15.80;;;10.40;99.90;;;;;;4981920;28;20324;-77
2022/10/23 07:04:29;;;;;;;32.63;17.43;;;10.50;99.90;;;;;;4991967;28;20449;-80
2022/10/23 07:06:57;;;;;;;29.43;16.17;;;10.50;99.90;;;;;;4981135;28;20785;-84
2022/10/23 07:09:23;;;;;;;31.42;16.40;;;10.50;99.90;;;;;;4993809;28;20038;-83
2022/10/23 07:11:51;;;;;;;29.00;16.00;;;10.60;99.90;;;;;;4974243;28;20132;-82
2022/10/23 07:14:17;;;;;;;29.57;15.23;;;10.60;99.90;;;;;;5000018;28;20121;-82
2022/10/23 07:16:43;;;;;;;27.93;15.83;;;10.60;99.90;;;;;;4980994;28;20045;-82
2022/10/23 07:19:08;;;;;;;30.83;15.63;;;10.60;99.90;;;;;;5001052;28;20639;-82
2022/10/23 07:21:35;;;;;;;31.20;15.83;;;10.80;99.90;;;;;;4982090;28;20049;-80
2022/10/23 07:24:02;;;;;;;27.88;15.32;;;10.70;99.90;;;;;;4986504;28;20278;-79
2022/10/23 07:26:28;;;;;;;30.75;16.50;;;10.70;99.90;;;;;;4984890;28;20050;-81
2022/10/23 07:28:54;;;;;;;;;;;10.80;99.90;;;;;;5000068;28;20034;-79
2022/10/23 07:31:24;;;;;;;24.90;14.75;;;10.80;99.90;;;;;;4999616;28;19929;-80
2022/10/23 07:33:50;;;;;;;32.90;16.05;;;10.80;99.90;;;;;;5002313;28;20041;-80
2022/10/23 07:36:17;;;;;;;29.10;16.13;;;10.80;99.90;;;;;;4985439;28;20106;-79
2022/10/23 07:38:43;;;;;;;31.00;15.50;;;10.80;99.90;;;;;;5000272;28;20498;-79
2022/10/23 07:41:09;;;;;;;32.77;14.13;;;10.80;99.90;;;;;;4999186;28;20053;-80
2022/10/23 07:43:35;;;;;;;26.52;14.45;;;10.90;99.90;;;;;;4998048;28;20277;-80
2022/10/23 07:46:00;;;;;;;31.75;13.60;;;10.90;99.90;;;;;;5002351;28;20495;-81
2022/10/23 07:48:26;;;;;;;33.13;14.45;;;11.00;99.90;;;;;;4973494;28;20041;-79
2022/10/23 07:50:56;;;;;;;27.05;14.23;;;11.00;99.90;;;;;;5003590;28;20454;-80
2022/10/23 07:53:24;;;;;;;26.80;13.30;;;11.00;99.90;;;;;;4998105;28;20549;-78
2022/10/23 07:55:55;;;;;;;25.58;13.80;;;11.10;99.90;;;;;;5002565;28;20114;-78
2022/10/23 07:58:21;;;;;;;26.73;14.10;;;11.10;99.90;;;;;;5001752;28;20169;-78
2022/10/23 08:00:57;;;;;;;30.70;13.73;;;11.10;99.90;;;;;;5011209;28;20052;-78
2022/10/23 08:03:24;;;;;;;29.63;13.35;;;11.20;99.90;;;;;;5004443;28;20045;-78
2022/10/23 08:05:52;;;;;;;22.48;12.85;;;11.20;99.90;;;;;;4990309;28;20045;-78
2022/10/23 08:08:18;;;;;;;23.27;13.27;;;11.30;99.90;;;;;;5010905;28;20073;-77
2022/10/23 08:10:46;;;;;;;21.05;12.50;;;11.30;99.90;;;;;;4989181;28;20438;-78
2022/10/23 08:13:12;;;;;;;24.70;13.10;;;11.30;99.90;;;;;;5005798;28;20486;-78
2022/10/23 08:15:40;;;;;;;26.70;12.50;;;11.30;99.90;;;;;;5005874;28;20093;-78
2022/10/23 08:18:06;;;;;;;24.77;12.35;;;11.40;99.90;;;;;;5000708;28;20398;-77
2022/10/23 08:20:36;;;;;;;28.30;13.38;;;11.40;99.90;;;;;;5003112;28;20502;-78
2022/10/23 08:23:01;;;;;;;24.45;11.82;;;11.50;99.90;;;;;;5000799;28;20558;-79
2022/10/23 08:25:27;;;;;;;24.37;12.80;;;11.50;99.90;;;;;;5004610;28;20096;-78
2022/10/23 08:27:53;;;;;;;23.70;12.65;;;11.50;99.90;;;;;;4988722;28;20065;-77
2022/10/23 08:30:18;;;;;;;23.85;12.55;;;11.60;99.90;;;;;;4990000;28;20038;-77
2022/10/23 08:32:44;;;;;;;23.15;11.85;;;11.70;99.90;;;;;;5005544;28;20038;-78
2022/10/23 08:35:10;;;;;;;19.85;11.85;;;11.60;99.90;;;;;;4974450;28;20034;-77
2022/10/23 08:37:35;;;;;;;20.57;11.13;;;11.80;99.90;;;;;;4987025;28;20038;-77
2022/10/23 08:40:02;;;;;;;24.50;11.57;;;11.80;99.90;;;;;;4986748;28;20419;-78
2022/10/23 08:42:28;;;;;;;20.67;11.52;;;11.90;99.90;;;;;;5007896;28;20344;-78
2022/10/23 08:45:14;;;;;;;24.73;12.15;;;12.00;99.90;;;;;;5005045;28;20042;-78
2022/10/23 08:47:53;;;;;;;16.13;10.13;;;12.10;99.90;;;;;;5000024;28;20045;-77
2022/10/23 08:50:37;;;;;;;19.13;11.18;;;12.10;99.90;;;;;;4991150;28;20050;-77
2022/10/23 08:53:16;;;;;;;23.58;11.02;;;12.20;99.90;;;;;;5000074;28;20073;-79
2022/10/23 08:55:46;;;;;;;18.75;10.18;;;12.20;99.90;;;;;;4995712;28;20045;-78
2022/10/23 08:58:22;;;;;;;15.73;9.80;;;12.30;99.90;;;;;;4997303;28;20446;-79
2022/10/23 09:00:49;;;;;;;16.27;10.15;;;12.30;99.90;;;;;;5005402;28;20045;-79
2022/10/23 09:03:15;;;;;;;18.27;10.68;;;12.40;99.90;;;;;;5000571;28;20095;-79
2022/10/23 09:06:07;;;;;;;15.50;9.45;;;12.40;99.90;;;;;;5010589;28;20041;-79
2022/10/23 09:08:54;;;;;;;15.18;9.73;;;12.50;99.90;;;;;;5006699;28;20037;-78
2022/10/23 09:11:56;;;;;;;15.57;9.20;;;12.60;99.90;;;;;;5005326;28;20050;-78
2022/10/23 09:14:33;;;;;;;16.67;8.98;;;12.70;99.90;;;;;;5000644;28;20058;-79
2022/10/23 09:17:08;;;;;;;18.92;9.45;;;12.80;99.90;;;;;;5003412;28;20042;-79
2022/10/23 09:19:34;;;;;;;15.63;8.38;;;12.90;99.90;;;;;;5001210;28;20449;-78
2022/10/23 09:22:00;;;;;;;16.95;9.38;;;13.00;99.90;;;;;;5006470;28;20040;-78
2022/10/23 09:24:30;;;;;;;17.85;8.77;;;13.20;99.90;;;;;;4997805;28;20057;-78
2022/10/23 09:26:57;;;;;;;13.75;8.60;;;13.20;99.90;;;;;;5004820;28;20125;-78
2022/10/23 09:29:29;;;;;;;13.55;8.38;;;13.40;99.90;;;;;;4986425;28;20096;-78
2022/10/23 09:31:57;;;;;;;15.85;8.25;;;13.50;99.90;;;;;;4987363;28;20057;-78
2022/10/23 09:34:25;;;;;;;14.77;7.97;;;13.60;99.90;;;;;;5000894;28;20074;-79
2022/10/23 09:36:55;;;;;;;13.68;8.75;;;13.70;99.90;;;;;;4999240;28;20046;-78
2022/10/23 09:39:34;;;;;;;15.88;8.15;;;13.90;99.90;;;;;;5002208;28;20048;-79
2022/10/23 09:42:04;;;;;;;13.65;7.85;;;14.10;99.90;;;;;;5001541;28;20068;-79
2022/10/23 09:44:31;;;;;;;12.63;7.25;;;14.30;99.90;;;;;;5007569;28;20046;-79
2022/10/23 09:47:10;;;;;;;14.70;7.47;;;14.60;99.90;;;;;;4984378;28;20034;-79
2022/10/23 09:49:39;;;;;;;12.43;6.72;;;14.80;99.90;;;;;;5002279;28;20077;-80
2022/10/23 09:52:11;;;;;;;10.27;6.65;;;15.00;99.90;;;;;;5001879;28;20034;-79
2022/10/23 09:54:50;;;;;;;12.68;7.03;;;15.00;99.90;;;;;;5001948;28;20438;-80
2022/10/23 09:57:30;;;;;;;11.52;6.25;;;14.90;99.90;;;;;;5003289;28;20065;-79
2022/10/23 10:00:00;;;;;;;9.75;5.95;;;14.90;99.90;;;;;;5026145;28;20065;-78
2022/10/23 10:02:29;;;;;;;11.63;6.43;;;15.00;99.90;;;;;;5005114;28;20125;-78
2022/10/23 10:04:55;;;;;;;10.73;6.10;;;15.10;99.90;;;;;;4992125;28;20041;-78
2022/10/23 10:07:25;;;;;;;12.65;6.55;;;15.00;99.90;;;;;;5006323;28;20076;-79
2022/10/23 10:09:53;;;;;;;13.13;6.22;;;15.00;99.90;;;;;;4994839;28;20038;-78
2022/10/23 10:12:37;;;;;;;11.43;6.22;;;15.00;99.90;;;;;;4968546;28;20371;-79
2022/10/23 10:15:34;;;;;;;12.60;6.18;;;15.00;99.90;;;;;;5000127;28;20042;-77
2022/10/23 10:18:33;;;;;;;8.25;5.70;;;15.00;99.90;;;;;;4997672;28;20053;-78
2022/10/23 10:21:23;;;;;;;9.63;5.40;;;15.10;99.90;;;;;;4985276;28;20046;-79
2022/10/23 10:23:54;;;;;;;7.93;5.20;;;15.00;99.90;;;;;;4998767;28;20046;-78
2022/10/23 10:26:58;;;;;;;12.40;5.63;;;15.10;99.90;;;;;;5007196;28;20073;-79
2022/10/23 10:29:28;;;;;;;8.40;4.97;;;15.20;99.90;;;;;;4982584;28;20403;-79
2022/10/23 10:32:06;;;;;;;10.75;5.30;;;15.30;99.90;;;;;;5003759;28;20076;-82
2022/10/23 10:34:55;;;;;;;12.30;5.55;;;15.40;99.90;;;;;;5000816;28;20077;-78
2022/10/23 10:37:51;;;;;;;10.60;5.43;;;15.40;99.90;;;;;;4996991;28;20112;-78
2022/10/23 10:40:46;;;;;;;8.30;5.05;;;15.50;99.90;;;;;;5002331;28;20047;-78
2022/10/23 10:43:39;;;;;;;10.40;5.57;;;15.80;99.90;;;;;;4980354;28;20494;-78
2022/10/23 10:46:16;;;;;;;9.95;4.68;;;15.80;99.90;;;;;;4984460;28;20045;-80
2022/10/23 10:48:53;;;;;;;7.93;4.55;;;15.90;99.90;;;;;;5004894;28;20046;-79
2022/10/23 10:51:18;;;;;;;9.90;4.80;;;16.00;99.90;;;;;;5002428;28;20073;-81
2022/10/23 10:53:53;;;;;;;13.25;4.80;;;16.00;99.90;;;;;;5008903;28;20418;-78
2022/10/23 10:56:24;;;;;;;8.48;4.78;;;16.00;99.90;;;;;;4993381;28;20046;-79
2022/10/23 10:58:54;;;;;;;8.15;4.82;;;15.90;99.90;;;;;;4995654;28;20125;-79
2022/10/23 11:01:33;;;;;;;11.40;5.10;;;16.00;99.90;;;;;;5003579;28;20125;-79
2022/10/23 11:04:05;;;;;;;9.18;4.90;;;16.00;99.90;;;;;;5002138;28;20038;-79
2022/10/23 11:06:36;;;;;;;8.65;4.63;;;16.00;99.90;;;;;;4996358;28;20401;-79
2022/10/23 11:09:10;;;;;;;8.40;4.57;;;16.00;99.90;;;;;;5000502;28;20045;-79
2022/10/23 11:11:42;;;;;;;7.82;3.97;;;16.00;99.90;;;;;;5001266;28;20057;-79
2022/10/23 11:14:20;;;;;;;7.90;3.97;;;16.00;99.90;;;;;;4986498;28;20073;-79
2022/10/23 11:17:09;;;;;;;7.78;4.22;;;15.90;99.90;;;;;;4990574;28;20042;-79
2022/10/23 11:19:56;;;;;;;10.40;4.82;;;16.00;99.90;;;;;;4999245;28;20042;-78
2022/10/23 11:22:25;;;;;;;;;;;15.90;99.90;;;;;;5002086;28;20429;-77
2022/10/23 11:25:28;;;;;;;9.13;4.03;;;15.90;99.90;;;;;;5002735;28;19917;-77
2022/10/23 11:28:23;;;;;;;8.05;4.10;;;15.90;99.90;;;;;;4988531;28;20034;-78
2022/10/23 11:31:01;;;;;;;15.95;4.68;;;15.90;99.90;;;;;;4957418;28;20050;-78
2022/10/23 11:33:50;;;;;;;9.43;4.30;;;15.80;99.90;;;;;;5001565;28;20180;-78
2022/10/23 11:36:19;;;;;;;6.50;4.70;;;15.80;99.90;;;;;;5024181;28;20485;-78
2022/10/23 11:38:48;;;;;;;8.90;4.60;;;15.80;99.90;;;;;;4999256;28;20082;-79
2022/10/23 11:41:24;;;;;;;9.77;4.88;;;15.80;99.90;;;;;;4980623;28;20585;-77
2022/10/23 11:43:56;;;;;;;9.35;4.47;;;15.80;99.90;;;;;;4993872;28;20049;-77
2022/10/23 11:46:21;;;;;;;8.82;5.38;;;15.70;99.90;;;;;;5003068;28;20502;-77
2022/10/23 11:48:48;;;;;;;12.43;4.73;;;15.80;99.90;;;;;;4994900;28;20052;-77
2022/10/23 11:51:33;;;;;;;;;;;15.80;99.90;;;;;;5003350;28;20289;-78
2022/10/23 11:54:14;;;;;;;12.60;4.45;;;15.70;99.90;;;;;;4980867;28;19917;-78
2022/10/23 11:57:12;;;;;;;6.60;4.07;;;15.70;99.90;;;;;;5002369;28;20052;-78
2022/10/23 11:59:43;;;;;;;;;;;15.70;99.90;;;;;;4998977;28;20046;-78
2022/10/23 12:02:23;;;;;;;9.65;4.38;;;15.70;99.90;;;;;;5004175;28;19917;-78
2022/10/23 12:04:51;;;;;;;7.65;3.95;;;15.70;99.90;;;;;;4988360;28;20072;-78
2022/10/23 12:07:24;;;;;;;8.50;4.22;;;15.70;99.90;;;;;;5001937;28;20037;-78
2022/10/23 12:10:01;;;;;;;9.68;3.60;;;15.70;99.90;;;;;;5002155;28;20046;-78
2022/10/23 12:12:30;;;;;;;;;;;15.70;99.90;;;;;;4997750;28;20038;-78
2022/10/23 12:15:13;;;;;;;11.05;4.05;;;15.70;99.90;;;;;;4999649;28;19933;-78
2022/10/23 12:17:40;;;;;;;9.00;4.07;;;15.70;99.90;;;;;;4997183;28;20069;-78
2022/10/23 12:20:09;;;;;;;6.47;3.55;;;15.70;99.90;;;;;;4996657;28;20045;-78
2022/10/23 12:22:46;;;;;;;8.95;3.75;;;15.70;99.90;;;;;;4981282;28;20038;-78
2022/10/23 12:25:53;;;;;;;10.55;4.65;;;15.70;99.90;;;;;;5002344;28;20498;-77
2022/10/23 12:28:43;;;;;;;6.60;3.67;;;15.80;99.90;;;;;;5005510;28;20046;-77
2022/10/23 12:31:27;;;;;;;7.65;3.90;;;15.80;99.90;;;;;;5001120;28;20046;-78
2022/10/23 12:34:23;;;;;;;7.38;4.22;;;15.90;99.90;;;;;;5003117;28;20430;-78
2022/10/23 12:37:37;;;;;;;9.82;3.75;;;15.90;99.90;;;;;;5004708;28;20120;-78
2022/10/23 12:40:08;;;;;;;9.73;3.95;;;15.90;99.90;;;;;;4984595;28;20046;-77
2022/10/23 12:42:35;;;;;;;8.57;4.05;;;16.00;99.90;;;;;;4987050;28;20037;-78
2022/10/23 12:45:33;;;;;;;9.15;3.55;;;16.00;99.90;;;;;;5004371;28;20647;-77
2022/10/23 12:47:58;;;;;;;11.65;4.00;;;16.00;99.90;;;;;;4999041;28;20042;-77
2022/10/23 12:50:26;;;;;;;7.03;3.58;;;16.00;99.90;;;;;;4967006;28;20089;-77
2022/10/23 12:53:03;;;;;;;8.63;3.45;;;16.00;99.90;;;;;;5004169;28;20041;-78
2022/10/23 12:55:45;;;;;;;8.75;3.40;;;16.00;99.90;;;;;;5005707;28;20117;-78
2022/10/23 12:58:30;;;;;;;7.82;3.58;;;16.00;99.90;;;;;;5005212;28;20413;-78